Pagrindinis puslapis
METAR-TAF:

METAR-TAF

Oro uostai :

Hohenfels, Vokietija

platuma: 49-13N, ilguma: 011-50E, Aukštis: 442 m

Dabartinis oras

Ataskaita buvo paskelbta 1 valandą ir 5 minutes, ne 22:56 UTC
Vėjas 3 kt iš Šiaurės/Šiaurės Vakarų
Temperatūra 4°C
Drėgmė 65%
Slėgis 1017 hPa
Matomumas 10 km arba daugiau
Giedras dangus

METAR: ETIH 282256Z AUTO 34003KT 9999 CLR 04/M02 A3004 RMK AO2 SLP180 T00431019 401681015

Laikas: 01:01 (00:01 UTC)


TAF: trūkstamas

Orai ataskaitas ir orų prognozės (METAR, TAF).

turimą stotys yra geltonos ir raudonos taškus žemėlapyje.

Perkelti pele per norėdami pamatyti stoties vardą.

Tada spustelėkite, norėdami matyti oro stebėjimo ir prognozės.

Norėdami pakeisti žemėlapį: spustelėkite ant žalios mygtukų su juodo kryžiaus žemyn,; žalią mygtuką su brūkšneliu, jei norite nutolinti; arba žalių rodyklių gretimoms žemėlapius.


METAR-TAF: